sensor_id;sensor_type;location;lat;lon;timestamp;temperature;humidity
45849;DHT22;31567;54.600;9.842;2023-03-19T00:02:49;11.00;99.90
45849;DHT22;31567;54.600;9.842;2023-03-19T00:06:30;11.00;99.90
45849;DHT22;31567;54.600;9.842;2023-03-19T00:10:10;11.00;99.90
45849;DHT22;31567;54.600;9.842;2023-03-19T00:13:49;10.90;99.90
45849;DHT22;31567;54.600;9.842;2023-03-19T00:17:29;10.90;99.90
45849;DHT22;31567;54.600;9.842;2023-03-19T00:21:09;10.90;99.90
45849;DHT22;31567;54.600;9.842;2023-03-19T00:24:49;10.90;99.90
45849;DHT22;31567;54.600;9.842;2023-03-19T00:28:28;10.90;99.90
45849;DHT22;31567;54.600;9.842;2023-03-19T00:32:09;10.80;99.90
45849;DHT22;31567;54.600;9.842;2023-03-19T00:35:48;10.90;99.90
45849;DHT22;31567;54.600;9.842;2023-03-19T00:39:28;10.90;99.90
45849;DHT22;31567;54.600;9.842;2023-03-19T00:43:07;10.80;99.90
45849;DHT22;31567;54.600;9.842;2023-03-19T00:46:47;10.70;99.90
45849;DHT22;31567;54.600;9.842;2023-03-19T00:50:26;10.60;99.90
45849;DHT22;31567;54.600;9.842;2023-03-19T00:54:06;10.50;99.90
45849;DHT22;31567;54.600;9.842;2023-03-19T00:57:46;10.50;99.90
45849;DHT22;31567;54.600;9.842;2023-03-19T01:01:25;10.60;99.90
45849;DHT22;31567;54.600;9.842;2023-03-19T01:05:05;10.60;99.90
45849;DHT22;31567;54.600;9.842;2023-03-19T01:08:46;10.60;99.90
45849;DHT22;31567;54.600;9.842;2023-03-19T01:12:25;10.60;99.90
45849;DHT22;31567;54.600;9.842;2023-03-19T01:16:05;10.60;99.90
45849;DHT22;31567;54.600;9.842;2023-03-19T01:19:45;10.70;99.90
45849;DHT22;31567;54.600;9.842;2023-03-19T01:23:25;10.70;99.90
45849;DHT22;31567;54.600;9.842;2023-03-19T01:27:04;10.70;99.90
45849;DHT22;31567;54.600;9.842;2023-03-19T01:30:44;10.60;99.90
45849;DHT22;31567;54.600;9.842;2023-03-19T01:34:24;10.70;99.90
45849;DHT22;31567;54.600;9.842;2023-03-19T01:38:03;10.70;99.90
45849;DHT22;31567;54.600;9.842;2023-03-19T01:41:43;10.70;99.90
45849;DHT22;31567;54.600;9.842;2023-03-19T01:45:36;10.70;99.90
45849;DHT22;31567;54.600;9.842;2023-03-19T01:49:17;10.70;99.90
45849;DHT22;31567;54.600;9.842;2023-03-19T01:52:58;10.70;99.90
45849;DHT22;31567;54.600;9.842;2023-03-19T01:56:38;10.60;99.90
45849;DHT22;31567;54.600;9.842;2023-03-19T02:00:18;10.70;99.90
45849;DHT22;31567;54.600;9.842;2023-03-19T02:03:59;10.60;99.90
45849;DHT22;31567;54.600;9.842;2023-03-19T02:07:40;10.60;99.90
45849;DHT22;31567;54.600;9.842;2023-03-19T02:11:20;10.60;99.90
45849;DHT22;31567;54.600;9.842;2023-03-19T02:15:00;10.50;99.90
45849;DHT22;31567;54.600;9.842;2023-03-19T02:18:40;10.50;99.90
45849;DHT22;31567;54.600;9.842;2023-03-19T02:22:23;10.50;99.90
45849;DHT22;31567;54.600;9.842;2023-03-19T02:26:10;10.40;99.90
45849;DHT22;31567;54.600;9.842;2023-03-19T02:29:50;10.40;99.90
45849;DHT22;31567;54.600;9.842;2023-03-19T02:33:30;10.30;99.90
45849;DHT22;31567;54.600;9.842;2023-03-19T02:37:16;10.30;99.90
45849;DHT22;31567;54.600;9.842;2023-03-19T02:44:39;10.20;99.90
45849;DHT22;31567;54.600;9.842;2023-03-19T02:48:19;10.10;99.90
45849;DHT22;31567;54.600;9.842;2023-03-19T02:51:58;10.00;99.90
45849;DHT22;31567;54.600;9.842;2023-03-19T02:55:38;9.90;99.90
45849;DHT22;31567;54.600;9.842;2023-03-19T02:59:18;9.90;99.90
45849;DHT22;31567;54.600;9.842;2023-03-19T03:02:58;9.80;99.90
45849;DHT22;31567;54.600;9.842;2023-03-19T03:06:37;9.80;99.90
45849;DHT22;31567;54.600;9.842;2023-03-19T03:10:17;9.70;99.90
45849;DHT22;31567;54.600;9.842;2023-03-19T03:13:57;9.70;99.90
45849;DHT22;31567;54.600;9.842;2023-03-19T03:17:42;9.70;99.90
45849;DHT22;31567;54.600;9.842;2023-03-19T03:21:23;9.60;99.90
45849;DHT22;31567;54.600;9.842;2023-03-19T03:25:04;9.50;99.90
45849;DHT22;31567;54.600;9.842;2023-03-19T03:28:44;9.50;99.90
45849;DHT22;31567;54.600;9.842;2023-03-19T03:32:24;9.40;99.90
45849;DHT22;31567;54.600;9.842;2023-03-19T03:36:04;9.40;99.90
45849;DHT22;31567;54.600;9.842;2023-03-19T03:39:44;9.30;99.90
45849;DHT22;31567;54.600;9.842;2023-03-19T03:43:25;9.30;99.90
45849;DHT22;31567;54.600;9.842;2023-03-19T03:47:05;9.20;99.90
45849;DHT22;31567;54.600;9.842;2023-03-19T03:50:45;9.10;99.90
45849;DHT22;31567;54.600;9.842;2023-03-19T03:54:25;9.00;99.90
45849;DHT22;31567;54.600;9.842;2023-03-19T03:58:04;9.00;99.90
45849;DHT22;31567;54.600;9.842;2023-03-19T04:01:44;9.00;99.90
45849;DHT22;31567;54.600;9.842;2023-03-19T04:05:24;8.90;99.90
45849;DHT22;31567;54.600;9.842;2023-03-19T04:09:04;8.90;99.90
45849;DHT22;31567;54.600;9.842;2023-03-19T04:12:46;8.80;99.90
45849;DHT22;31567;54.600;9.842;2023-03-19T04:16:25;8.80;99.90
45849;DHT22;31567;54.600;9.842;2023-03-19T04:20:08;8.80;99.90
45849;DHT22;31567;54.600;9.842;2023-03-19T04:23:48;8.70;99.90
45849;DHT22;31567;54.600;9.842;2023-03-19T04:27:27;8.70;99.90
45849;DHT22;31567;54.600;9.842;2023-03-19T04:31:07;8.70;99.90
45849;DHT22;31567;54.600;9.842;2023-03-19T04:34:47;8.60;99.90
45849;DHT22;31567;54.600;9.842;2023-03-19T04:38:27;8.60;99.90
45849;DHT22;31567;54.600;9.842;2023-03-19T04:42:07;8.50;99.90
45849;DHT22;31567;54.600;9.842;2023-03-19T04:45:47;8.50;99.90
45849;DHT22;31567;54.600;9.842;2023-03-19T04:49:26;8.50;99.90
45849;DHT22;31567;54.600;9.842;2023-03-19T04:53:06;8.30;99.90
45849;DHT22;31567;54.600;9.842;2023-03-19T04:56:46;8.30;99.90
45849;DHT22;31567;54.600;9.842;2023-03-19T05:00:26;8.30;99.90
45849;DHT22;31567;54.600;9.842;2023-03-19T05:04:06;8.20;99.90
45849;DHT22;31567;54.600;9.842;2023-03-19T05:07:46;8.20;99.90
45849;DHT22;31567;54.600;9.842;2023-03-19T05:11:26;8.30;99.90
45849;DHT22;31567;54.600;9.842;2023-03-19T05:15:06;8.40;99.90
45849;DHT22;31567;54.600;9.842;2023-03-19T05:18:46;8.40;99.90
45849;DHT22;31567;54.600;9.842;2023-03-19T05:22:26;8.50;99.90
45849;DHT22;31567;54.600;9.842;2023-03-19T05:26:06;8.60;99.90
45849;DHT22;31567;54.600;9.842;2023-03-19T05:29:45;8.60;99.90
45849;DHT22;31567;54.600;9.842;2023-03-19T05:33:25;8.70;99.90
45849;DHT22;31567;54.600;9.842;2023-03-19T05:37:05;8.70;99.90
45849;DHT22;31567;54.600;9.842;2023-03-19T05:40:44;8.80;99.90
45849;DHT22;31567;54.600;9.842;2023-03-19T05:44:24;8.80;99.90
45849;DHT22;31567;54.600;9.842;2023-03-19T05:48:04;8.80;99.90
45849;DHT22;31567;54.600;9.842;2023-03-19T05:51:44;8.90;99.90
45849;DHT22;31567;54.600;9.842;2023-03-19T05:55:23;8.90;99.90
45849;DHT22;31567;54.600;9.842;2023-03-19T05:59:03;9.00;99.90
45849;DHT22;31567;54.600;9.842;2023-03-19T06:02:43;8.90;99.90
45849;DHT22;31567;54.600;9.842;2023-03-19T06:06:22;8.90;99.90
45849;DHT22;31567;54.600;9.842;2023-03-19T06:10:02;8.90;99.90
45849;DHT22;31567;54.600;9.842;2023-03-19T06:13:42;8.90;99.90
45849;DHT22;31567;54.600;9.842;2023-03-19T06:17:22;8.90;99.90
45849;DHT22;31567;54.600;9.842;2023-03-19T06:21:01;8.90;99.90
45849;DHT22;31567;54.600;9.842;2023-03-19T06:24:41;8.90;99.90
45849;DHT22;31567;54.600;9.842;2023-03-19T06:28:21;8.90;99.90
45849;DHT22;31567;54.600;9.842;2023-03-19T06:32:00;9.00;99.90
45849;DHT22;31567;54.600;9.842;2023-03-19T06:35:40;9.00;99.90
45849;DHT22;31567;54.600;9.842;2023-03-19T06:39:20;9.10;99.90
45849;DHT22;31567;54.600;9.842;2023-03-19T06:43:00;9.20;99.90
45849;DHT22;31567;54.600;9.842;2023-03-19T06:46:39;9.20;99.90
45849;DHT22;31567;54.600;9.842;2023-03-19T06:50:19;9.30;99.90
45849;DHT22;31567;54.600;9.842;2023-03-19T06:53:59;9.30;99.90
45849;DHT22;31567;54.600;9.842;2023-03-19T06:57:39;9.40;99.90
45849;DHT22;31567;54.600;9.842;2023-03-19T07:01:19;9.50;99.90
45849;DHT22;31567;54.600;9.842;2023-03-19T07:04:58;9.60;99.90
45849;DHT22;31567;54.600;9.842;2023-03-19T07:08:38;9.80;99.90
45849;DHT22;31567;54.600;9.842;2023-03-19T07:12:17;10.00;99.90
45849;DHT22;31567;54.600;9.842;2023-03-19T07:15:57;10.10;99.90
45849;DHT22;31567;54.600;9.842;2023-03-19T07:19:37;10.20;99.90
45849;DHT22;31567;54.600;9.842;2023-03-19T07:23:16;10.30;99.90
45849;DHT22;31567;54.600;9.842;2023-03-19T07:26:56;10.40;99.90
45849;DHT22;31567;54.600;9.842;2023-03-19T07:30:35;10.50;99.90
45849;DHT22;31567;54.600;9.842;2023-03-19T07:34:16;10.60;99.90
45849;DHT22;31567;54.600;9.842;2023-03-19T07:37:56;10.80;99.90
45849;DHT22;31567;54.600;9.842;2023-03-19T07:41:36;11.00;99.90
45849;DHT22;31567;54.600;9.842;2023-03-19T07:45:15;11.10;99.90
45849;DHT22;31567;54.600;9.842;2023-03-19T07:48:55;11.30;99.90
45849;DHT22;31567;54.600;9.842;2023-03-19T07:52:34;11.40;99.90
45849;DHT22;31567;54.600;9.842;2023-03-19T07:56:14;11.60;99.90
45849;DHT22;31567;54.600;9.842;2023-03-19T07:59:54;11.80;99.90
45849;DHT22;31567;54.600;9.842;2023-03-19T08:03:33;11.80;99.90
45849;DHT22;31567;54.600;9.842;2023-03-19T08:07:13;12.00;99.90
45849;DHT22;31567;54.600;9.842;2023-03-19T08:10:53;12.10;99.90
45849;DHT22;31567;54.600;9.842;2023-03-19T08:14:33;12.20;99.90
45849;DHT22;31567;54.600;9.842;2023-03-19T08:18:13;12.30;99.90
45849;DHT22;31567;54.600;9.842;2023-03-19T08:21:53;12.40;99.90
45849;DHT22;31567;54.600;9.842;2023-03-19T08:25:33;12.50;99.90
45849;DHT22;31567;54.600;9.842;2023-03-19T08:29:13;12.50;99.90
45849;DHT22;31567;54.600;9.842;2023-03-19T08:32:52;12.60;99.90
45849;DHT22;31567;54.600;9.842;2023-03-19T08:36:32;12.80;99.90
45849;DHT22;31567;54.600;9.842;2023-03-19T08:40:12;12.80;99.90
45849;DHT22;31567;54.600;9.842;2023-03-19T08:43:51;12.90;99.90
45849;DHT22;31567;54.600;9.842;2023-03-19T08:47:31;12.80;99.90
45849;DHT22;31567;54.600;9.842;2023-03-19T08:51:11;12.80;99.90
45849;DHT22;31567;54.600;9.842;2023-03-19T08:54:50;12.80;99.90
45849;DHT22;31567;54.600;9.842;2023-03-19T08:58:30;12.70;99.90
45849;DHT22;31567;54.600;9.842;2023-03-19T09:02:11;12.70;99.90
45849;DHT22;31567;54.600;9.842;2023-03-19T09:05:50;12.70;99.90
45849;DHT22;31567;54.600;9.842;2023-03-19T09:09:30;12.70;99.90
45849;DHT22;31567;54.600;9.842;2023-03-19T09:13:09;12.80;99.90
45849;DHT22;31567;54.600;9.842;2023-03-19T09:16:49;12.80;99.90
45849;DHT22;31567;54.600;9.842;2023-03-19T09:20:28;12.90;99.90
45849;DHT22;31567;54.600;9.842;2023-03-19T09:24:08;12.90;99.90
45849;DHT22;31567;54.600;9.842;2023-03-19T09:27:48;13.00;99.90
45849;DHT22;31567;54.600;9.842;2023-03-19T09:31:27;13.20;99.90
45849;DHT22;31567;54.600;9.842;2023-03-19T09:35:07;13.20;99.90
45849;DHT22;31567;54.600;9.842;2023-03-19T09:38:47;13.30;99.90
45849;DHT22;31567;54.600;9.842;2023-03-19T09:50:25;13.40;99.90
45849;DHT22;31567;54.600;9.842;2023-03-19T09:54:19;13.40;99.90
45849;DHT22;31567;54.600;9.842;2023-03-19T09:58:01;13.30;99.90
45849;DHT22;31567;54.600;9.842;2023-03-19T10:01:54;13.30;99.90
45849;DHT22;31567;54.600;9.842;2023-03-19T10:09:28;13.30;99.90
45849;DHT22;31567;54.600;9.842;2023-03-19T10:17:31;13.30;99.90
45849;DHT22;31567;54.600;9.842;2023-03-19T10:21:29;13.40;99.90
45849;DHT22;31567;54.600;9.842;2023-03-19T10:25:15;13.50;99.90
45849;DHT22;31567;54.600;9.842;2023-03-19T10:29:14;13.50;99.90
45849;DHT22;31567;54.600;9.842;2023-03-19T10:33:25;13.60;99.90
45849;DHT22;31567;54.600;9.842;2023-03-19T10:37:23;13.70;99.90
45849;DHT22;31567;54.600;9.842;2023-03-19T10:45:33;13.60;99.90
45849;DHT22;31567;54.600;9.842;2023-03-19T10:49:14;13.60;99.90
45849;DHT22;31567;54.600;9.842;2023-03-19T10:53:18;13.70;99.90
45849;DHT22;31567;54.600;9.842;2023-03-19T10:57:01;13.80;99.90
45849;DHT22;31567;54.600;9.842;2023-03-19T11:00:45;13.90;99.90
45849;DHT22;31567;54.600;9.842;2023-03-19T11:04:25;14.00;99.90
45849;DHT22;31567;54.600;9.842;2023-03-19T11:08:17;14.10;99.90
45849;DHT22;31567;54.600;9.842;2023-03-19T11:12:30;14.10;99.90
45849;DHT22;31567;54.600;9.842;2023-03-19T11:16:12;14.20;99.90
45849;DHT22;31567;54.600;9.842;2023-03-19T11:19:54;14.20;99.90
45849;DHT22;31567;54.600;9.842;2023-03-19T11:23:40;14.20;99.90
45849;DHT22;31567;54.600;9.842;2023-03-19T11:27:26;14.20;99.90
45849;DHT22;31567;54.600;9.842;2023-03-19T11:31:19;14.10;99.90
45849;DHT22;31567;54.600;9.842;2023-03-19T11:35:03;14.10;99.90
45849;DHT22;31567;54.600;9.842;2023-03-19T11:39:11;14.00;99.90
45849;DHT22;31567;54.600;9.842;2023-03-19T11:43:15;14.00;99.90
45849;DHT22;31567;54.600;9.842;2023-03-19T11:47:11;14.00;99.90
45849;DHT22;31567;54.600;9.842;2023-03-19T11:50:59;14.00;99.90
45849;DHT22;31567;54.600;9.842;2023-03-19T12:02:54;13.90;99.90
45849;DHT22;31567;54.600;9.842;2023-03-19T12:07:13;14.00;99.90
45849;DHT22;31567;54.600;9.842;2023-03-19T12:11:16;13.90;99.90
45849;DHT22;31567;54.600;9.842;2023-03-19T12:30:41;14.10;99.90
45849;DHT22;31567;54.600;9.842;2023-03-19T12:34:27;14.20;99.90
45849;DHT22;31567;54.600;9.842;2023-03-19T12:38:16;14.20;99.90
45849;DHT22;31567;54.600;9.842;2023-03-19T12:41:57;14.20;99.90
45849;DHT22;31567;54.600;9.842;2023-03-19T12:45:45;14.30;99.90
45849;DHT22;31567;54.600;9.842;2023-03-19T12:53:45;14.30;99.90
45849;DHT22;31567;54.600;9.842;2023-03-19T13:01:52;14.20;99.90
45849;DHT22;31567;54.600;9.842;2023-03-19T13:05:42;14.40;99.90
45849;DHT22;31567;54.600;9.842;2023-03-19T13:13:35;14.60;99.90
45849;DHT22;31567;54.600;9.842;2023-03-19T13:21:29;14.90;99.90
45849;DHT22;31567;54.600;9.842;2023-03-19T13:25:24;15.00;99.90
45849;DHT22;31567;54.600;9.842;2023-03-19T13:36:29;15.00;99.90
45849;DHT22;31567;54.600;9.842;2023-03-19T13:40:39;14.90;99.90
45849;DHT22;31567;54.600;9.842;2023-03-19T13:44:34;14.90;99.90
45849;DHT22;31567;54.600;9.842;2023-03-19T13:55:56;15.10;99.90
45849;DHT22;31567;54.600;9.842;2023-03-19T13:59:37;15.00;99.90
45849;DHT22;31567;54.600;9.842;2023-03-19T14:03:54;15.00;99.90
45849;DHT22;31567;54.600;9.842;2023-03-19T14:07:37;14.90;99.90
45849;DHT22;31567;54.600;9.842;2023-03-19T14:11:22;14.80;99.90
45849;DHT22;31567;54.600;9.842;2023-03-19T14:18:47;14.70;99.90
45849;DHT22;31567;54.600;9.842;2023-03-19T14:22:38;14.60;99.90
45849;DHT22;31567;54.600;9.842;2023-03-19T14:26:23;14.70;99.90
45849;DHT22;31567;54.600;9.842;2023-03-19T14:30:20;14.70;99.90
45849;DHT22;31567;54.600;9.842;2023-03-19T14:37:54;14.60;99.90
45849;DHT22;31567;54.600;9.842;2023-03-19T14:41:39;14.60;99.90
45849;DHT22;31567;54.600;9.842;2023-03-19T14:53:54;14.60;99.90
45849;DHT22;31567;54.600;9.842;2023-03-19T14:57:34;14.60;99.90
45849;DHT22;31567;54.600;9.842;2023-03-19T15:01:14;14.60;99.90
45849;DHT22;31567;54.600;9.842;2023-03-19T15:04:54;14.70;99.90
45849;DHT22;31567;54.600;9.842;2023-03-19T15:08:36;14.70;99.90
45849;DHT22;31567;54.600;9.842;2023-03-19T15:12:29;14.70;99.90
45849;DHT22;31567;54.600;9.842;2023-03-19T15:19:55;14.80;99.90
45849;DHT22;31567;54.600;9.842;2023-03-19T15:23:37;14.90;99.90
45849;DHT22;31567;54.600;9.842;2023-03-19T15:27:23;14.90;99.90
45849;DHT22;31567;54.600;9.842;2023-03-19T15:31:04;14.90;99.90
45849;DHT22;31567;54.600;9.842;2023-03-19T15:34:44;15.00;99.90
45849;DHT22;31567;54.600;9.842;2023-03-19T15:38:29;15.00;99.90
45849;DHT22;31567;54.600;9.842;2023-03-19T15:42:09;15.00;99.90
45849;DHT22;31567;54.600;9.842;2023-03-19T15:45:51;14.90;99.90
45849;DHT22;31567;54.600;9.842;2023-03-19T15:49:38;15.00;99.90
45849;DHT22;31567;54.600;9.842;2023-03-19T15:53:23;14.80;99.90
45849;DHT22;31567;54.600;9.842;2023-03-19T15:57:05;14.70;99.90
45849;DHT22;31567;54.600;9.842;2023-03-19T16:00:45;14.70;99.90
45849;DHT22;31567;54.600;9.842;2023-03-19T16:04:26;14.60;99.90
45849;DHT22;31567;54.600;9.842;2023-03-19T16:08:16;14.50;99.90
45849;DHT22;31567;54.600;9.842;2023-03-19T16:11:56;14.50;99.90
45849;DHT22;31567;54.600;9.842;2023-03-19T16:15:42;14.50;99.90
45849;DHT22;31567;54.600;9.842;2023-03-19T16:19:34;14.40;99.90
45849;DHT22;31567;54.600;9.842;2023-03-19T16:23:16;14.60;99.90
45849;DHT22;31567;54.600;9.842;2023-03-19T16:26:57;14.70;99.90
45849;DHT22;31567;54.600;9.842;2023-03-19T16:30:45;14.90;99.90
45849;DHT22;31567;54.600;9.842;2023-03-19T16:35:02;15.00;99.90
45849;DHT22;31567;54.600;9.842;2023-03-19T16:38:43;14.90;99.90
45849;DHT22;31567;54.600;9.842;2023-03-19T16:46:13;14.70;99.90
45849;DHT22;31567;54.600;9.842;2023-03-19T16:49:54;14.60;99.90
45849;DHT22;31567;54.600;9.842;2023-03-19T16:53:34;14.50;99.90
45849;DHT22;31567;54.600;9.842;2023-03-19T16:57:15;14.50;99.90
45849;DHT22;31567;54.600;9.842;2023-03-19T17:00:55;14.50;99.90
45849;DHT22;31567;54.600;9.842;2023-03-19T17:04:34;14.40;99.90
45849;DHT22;31567;54.600;9.842;2023-03-19T17:08:14;14.40;99.90
45849;DHT22;31567;54.600;9.842;2023-03-19T17:11:54;14.30;99.90
45849;DHT22;31567;54.600;9.842;2023-03-19T17:15:39;14.20;99.90
45849;DHT22;31567;54.600;9.842;2023-03-19T17:19:31;14.10;99.90
45849;DHT22;31567;54.600;9.842;2023-03-19T17:23:12;14.00;99.90
45849;DHT22;31567;54.600;9.842;2023-03-19T17:26:52;13.90;99.90
45849;DHT22;31567;54.600;9.842;2023-03-19T17:30:32;13.70;99.90
45849;DHT22;31567;54.600;9.842;2023-03-19T17:34:16;13.60;99.90
45849;DHT22;31567;54.600;9.842;2023-03-19T17:37:56;13.50;99.90
45849;DHT22;31567;54.600;9.842;2023-03-19T17:41:36;13.30;99.90
45849;DHT22;31567;54.600;9.842;2023-03-19T17:45:18;13.10;99.90
45849;DHT22;31567;54.600;9.842;2023-03-19T17:48:58;12.90;99.90
45849;DHT22;31567;54.600;9.842;2023-03-19T17:52:37;12.80;99.90
45849;DHT22;31567;54.600;9.842;2023-03-19T17:56:22;12.70;99.90
45849;DHT22;31567;54.600;9.842;2023-03-19T18:00:06;12.50;99.90
45849;DHT22;31567;54.600;9.842;2023-03-19T18:03:47;12.40;99.90
45849;DHT22;31567;54.600;9.842;2023-03-19T18:07:27;12.30;99.90
45849;DHT22;31567;54.600;9.842;2023-03-19T18:11:07;12.00;99.90
45849;DHT22;31567;54.600;9.842;2023-03-19T18:14:46;11.90;99.90
45849;DHT22;31567;54.600;9.842;2023-03-19T18:18:26;11.50;99.90
45849;DHT22;31567;54.600;9.842;2023-03-19T18:22:13;11.30;99.90
45849;DHT22;31567;54.600;9.842;2023-03-19T18:25:53;11.30;99.90
45849;DHT22;31567;54.600;9.842;2023-03-19T18:29:33;11.20;99.90
45849;DHT22;31567;54.600;9.842;2023-03-19T18:33:17;11.10;99.90
45849;DHT22;31567;54.600;9.842;2023-03-19T18:36:59;11.10;99.90
45849;DHT22;31567;54.600;9.842;2023-03-19T18:40:39;11.10;99.90
45849;DHT22;31567;54.600;9.842;2023-03-19T18:44:19;11.00;99.90
45849;DHT22;31567;54.600;9.842;2023-03-19T18:47:59;10.90;99.90
45849;DHT22;31567;54.600;9.842;2023-03-19T18:51:39;10.80;99.90
45849;DHT22;31567;54.600;9.842;2023-03-19T18:55:19;10.70;99.90
45849;DHT22;31567;54.600;9.842;2023-03-19T18:59:12;10.70;99.90
45849;DHT22;31567;54.600;9.842;2023-03-19T19:02:55;10.60;99.90
45849;DHT22;31567;54.600;9.842;2023-03-19T19:06:36;10.50;99.90
45849;DHT22;31567;54.600;9.842;2023-03-19T19:10:18;10.50;99.90
45849;DHT22;31567;54.600;9.842;2023-03-19T19:13:58;10.50;99.90
45849;DHT22;31567;54.600;9.842;2023-03-19T19:17:38;10.40;99.90
45849;DHT22;31567;54.600;9.842;2023-03-19T19:21:20;10.30;99.90
45849;DHT22;31567;54.600;9.842;2023-03-19T19:24:59;10.20;99.90
45849;DHT22;31567;54.600;9.842;2023-03-19T19:28:39;10.20;99.90
45849;DHT22;31567;54.600;9.842;2023-03-19T19:32:23;10.20;99.90
45849;DHT22;31567;54.600;9.842;2023-03-19T19:36:03;10.10;99.90
45849;DHT22;31567;54.600;9.842;2023-03-19T19:39:47;10.10;99.90
45849;DHT22;31567;54.600;9.842;2023-03-19T19:43:28;10.10;99.90
45849;DHT22;31567;54.600;9.842;2023-03-19T19:47:16;10.00;99.90
45849;DHT22;31567;54.600;9.842;2023-03-19T19:50:55;10.00;99.90
45849;DHT22;31567;54.600;9.842;2023-03-19T19:54:35;9.90;99.90
45849;DHT22;31567;54.600;9.842;2023-03-19T19:58:27;9.80;99.90
45849;DHT22;31567;54.600;9.842;2023-03-19T20:02:21;9.80;99.90
45849;DHT22;31567;54.600;9.842;2023-03-19T20:06:01;9.80;99.90
45849;DHT22;31567;54.600;9.842;2023-03-19T20:09:41;9.80;99.90
45849;DHT22;31567;54.600;9.842;2023-03-19T20:13:29;9.70;99.90
45849;DHT22;31567;54.600;9.842;2023-03-19T20:17:16;9.70;99.90
45849;DHT22;31567;54.600;9.842;2023-03-19T20:20:56;9.70;99.90
45849;DHT22;31567;54.600;9.842;2023-03-19T20:24:36;9.60;99.90
45849;DHT22;31567;54.600;9.842;2023-03-19T20:28:28;9.50;99.90
45849;DHT22;31567;54.600;9.842;2023-03-19T20:36:05;9.50;99.90
45849;DHT22;31567;54.600;9.842;2023-03-19T20:39:45;9.40;99.90
45849;DHT22;31567;54.600;9.842;2023-03-19T20:43:31;9.40;99.90
45849;DHT22;31567;54.600;9.842;2023-03-19T20:47:16;9.30;99.90
45849;DHT22;31567;54.600;9.842;2023-03-19T20:50:56;9.40;99.90
45849;DHT22;31567;54.600;9.842;2023-03-19T20:54:39;9.30;99.90
45849;DHT22;31567;54.600;9.842;2023-03-19T20:58:25;9.30;99.90
45849;DHT22;31567;54.600;9.842;2023-03-19T21:02:17;9.20;99.90
45849;DHT22;31567;54.600;9.842;2023-03-19T21:05:59;9.10;99.90
45849;DHT22;31567;54.600;9.842;2023-03-19T21:09:40;9.20;99.90
45849;DHT22;31567;54.600;9.842;2023-03-19T21:13:19;9.10;99.90
45849;DHT22;31567;54.600;9.842;2023-03-19T21:17:00;9.00;99.90
45849;DHT22;31567;54.600;9.842;2023-03-19T21:20:41;8.90;99.90
45849;DHT22;31567;54.600;9.842;2023-03-19T21:24:21;8.80;99.90
45849;DHT22;31567;54.600;9.842;2023-03-19T21:28:03;8.80;99.90
45849;DHT22;31567;54.600;9.842;2023-03-19T21:31:44;8.80;99.90
45849;DHT22;31567;54.600;9.842;2023-03-19T21:35:25;8.70;99.90
45849;DHT22;31567;54.600;9.842;2023-03-19T21:39:04;8.70;99.90
45849;DHT22;31567;54.600;9.842;2023-03-19T21:42:46;8.70;99.90
45849;DHT22;31567;54.600;9.842;2023-03-19T21:46:29;8.70;99.90
45849;DHT22;31567;54.600;9.842;2023-03-19T21:50:14;8.70;99.90
45849;DHT22;31567;54.600;9.842;2023-03-19T21:53:55;8.70;99.90
45849;DHT22;31567;54.600;9.842;2023-03-19T21:57:35;8.80;99.90
45849;DHT22;31567;54.600;9.842;2023-03-19T22:01:17;8.80;99.90
45849;DHT22;31567;54.600;9.842;2023-03-19T22:04:57;8.80;99.90
45849;DHT22;31567;54.600;9.842;2023-03-19T22:08:36;8.90;99.90
45849;DHT22;31567;54.600;9.842;2023-03-19T22:12:23;8.90;99.90
45849;DHT22;31567;54.600;9.842;2023-03-19T22:16:04;8.90;99.90
45849;DHT22;31567;54.600;9.842;2023-03-19T22:19:45;8.90;99.90
45849;DHT22;31567;54.600;9.842;2023-03-19T22:23:24;8.90;99.90
45849;DHT22;31567;54.600;9.842;2023-03-19T22:27:04;8.90;99.90
45849;DHT22;31567;54.600;9.842;2023-03-19T22:30:45;8.80;99.90
45849;DHT22;31567;54.600;9.842;2023-03-19T22:34:26;8.90;99.90
45849;DHT22;31567;54.600;9.842;2023-03-19T22:38:09;8.90;99.90
45849;DHT22;31567;54.600;9.842;2023-03-19T22:41:49;8.90;99.90
45849;DHT22;31567;54.600;9.842;2023-03-19T22:45:31;8.90;99.90
45849;DHT22;31567;54.600;9.842;2023-03-19T22:49:12;9.00;99.90
45849;DHT22;31567;54.600;9.842;2023-03-19T22:52:54;9.00;99.90
45849;DHT22;31567;54.600;9.842;2023-03-19T22:56:33;8.90;99.90
45849;DHT22;31567;54.600;9.842;2023-03-19T23:00:19;8.90;99.90
45849;DHT22;31567;54.600;9.842;2023-03-19T23:07:52;8.90;99.90
45849;DHT22;31567;54.600;9.842;2023-03-19T23:11:33;8.90;99.90
45849;DHT22;31567;54.600;9.842;2023-03-19T23:15:12;8.90;99.90
45849;DHT22;31567;54.600;9.842;2023-03-19T23:18:52;8.80;99.90
45849;DHT22;31567;54.600;9.842;2023-03-19T23:22:32;8.80;99.90
45849;DHT22;31567;54.600;9.842;2023-03-19T23:26:30;8.70;99.90
45849;DHT22;31567;54.600;9.842;2023-03-19T23:30:20;8.70;99.90
45849;DHT22;31567;54.600;9.842;2023-03-19T23:34:00;8.70;99.90
45849;DHT22;31567;54.600;9.842;2023-03-19T23:37:39;8.70;99.90
45849;DHT22;31567;54.600;9.842;2023-03-19T23:41:23;8.70;99.90
45849;DHT22;31567;54.600;9.842;2023-03-19T23:45:03;8.70;99.90
45849;DHT22;31567;54.600;9.842;2023-03-19T23:48:43;8.70;99.90
45849;DHT22;31567;54.600;9.842;2023-03-19T23:52:23;8.50;99.90
45849;DHT22;31567;54.600;9.842;2023-03-19T23:56:05;8.50;99.90
45849;DHT22;31567;54.600;9.842;2023-03-19T23:59:46;8.40;99.90
